Data for 04/14/2016

Time Sea-Level Adjusted Pressure Absolute Pressure Temperature Relative Humidity Dew Point   
(mb) (inHg) (mb) (inHg) (C) (F) (%) (C) (F)
00:05 1012 29.88 841 24.83 4.5 40.2 72 0 32
00:10 1012 29.88 841 24.83 4.4 39.8 74 0.2 32.4
00:15 1012 29.88 841 24.83 4.1 39.4 76 0.2 32.4
00:20 1012 29.88 841 24.83 4.3 39.7 75 0.2 32.4
00:25 1012 29.88 841 24.83 4.7 40.4 74 0.5 32.8
00:30 1012 29.88 841 24.83 4.2 39.6 76 0.4 32.7
00:35 1012 29.88 841 24.83 4.1 39.4 76 0.3 32.5
00:40 1012 29.88 841 24.83 4.3 39.7 74 0.1 32.2
00:45 1012 29.88 841 24.83 4.3 39.7 73 -0 31.9
00:50 1012 29.88 841 24.83 4.3 39.8 73 -0 31.9
00:55 1012 29.88 841 24.83 4.3 39.8 72 -0.4 31.4
01:00 1012 29.88 841 24.83 4.4 40 71 -0.5 31.2
01:05 1012 29.88 841 24.83 4.6 40.3 70 -0.3 31.4
01:10 1012 29.88 841 24.83 4.5 40.2 70 -0.4 31.3
01:15 1012 29.88 841 24.83 4.6 40.2 70 -0.4 31.3
01:20 1012 29.88 841 24.83 4.7 40.4 69 -0.4 31.3
01:25 1012 29.88 841 24.83 4.7 40.5 69 -0.4 31.2
01:30 1012 29.88 841 24.83 4.8 40.6 68 -0.6 31
01:35 1012 29.88 841 24.83 4.8 40.6 68 -0.5 31
01:40 1012 29.88 841 24.83 4.7 40.4 68 -0.6 30.9
01:45 1011 29.85 841 24.83 4.7 40.4 69 -0.5 31.1
01:50 1011 29.85 841 24.83 4.3 39.7 71 -0.5 31.1
01:55 1011 29.85 841 24.83 3.8 38.8 73 -0.5 31
02:00 1011 29.85 841 24.83 3.9 39 72 -0.7 30.8
02:05 1011 29.85 841 24.83 3.8 38.8 73 -0.6 31
02:10 1011 29.85 841 24.83 3.6 38.4 74 -0.6 30.9
02:15 1011 29.85 840 24.81 3.4 38 75 -0.7 30.8
02:20 1011 29.85 840 24.81 3.4 38.2 75 -0.7 30.8
02:25 1011 29.85 840 24.81 3.7 38.6 73 -0.8 30.6
02:30 1011 29.85 840 24.81 3.9 39.1 71 -0.9 30.4
02:35 1011 29.85 840 24.81 4.2 39.5 70 -0.8 30.5
02:40 1011 29.85 840 24.81 4.2 39.6 70 -0.8 30.5
02:45 1011 29.85 840 24.81 4.3 39.7 70 -0.7 30.7
02:50 1011 29.85 840 24.81 4.4 39.9 69 -0.9 30.5
02:55 1011 29.85 840 24.81 4.7 40.4 67 -0.9 30.4
03:00 1011 29.85 840 24.81 4.5 40.2 68 -0.8 30.5
03:05 1011 29.85 840 24.81 4.6 40.3 67 -1 30.2
03:10 1011 29.85 840 24.81 4.8 40.6 65 -1.2 29.9
03:15 1011 29.85 840 24.81 4.8 40.7 67 -0.8 30.6
03:20 1011 29.85 840 24.81 4.3 39.8 68 -1.1 30
03:25 1011 29.85 840 24.81 4.2 39.6 70 -0.8 30.5
03:30 1011 29.85 840 24.81 3.9 39 70 -1.1 30
03:35 1011 29.85 840 24.81 4 39.3 70 -0.9 30.4
03:40 1010 29.83 840 24.81 4.1 39.3 70 -0.8 30.5
03:45 1010 29.83 840 24.81 4.1 39.3 70 -0.9 30.5
03:50 1010 29.83 840 24.81 4.3 39.7 69 -0.8 30.5
03:55 1010 29.83 840 24.81 4.3 39.8 70 -0.6 30.9
04:00 1010 29.83 840 24.81 4.3 39.8 70 -0.7 30.7
04:05 1010 29.83 840 24.81 4.5 40 69 -0.7 30.7
04:10 1010 29.83 840 24.81 4.5 40.1 69 -0.7 30.7
04:15 1010 29.83 840 24.81 4.9 40.8 66 -1 30.3
04:20 1010 29.83 840 24.81 5.3 41.5 65 -0.7 30.8
04:25 1010 29.83 839 24.78 5.4 41.7 66 -0.5 31.1
04:30 1010 29.83 839 24.78 5.5 41.8 65 -0.5 31
04:35 1010 29.83 839 24.78 5.5 41.9 64 -0.8 30.6
04:40 1010 29.83 839 24.78 5.6 42.1 63 -0.8 30.5
04:45 1010 29.83 839 24.78 5.7 42.3 63 -0.7 30.7
04:50 1010 29.83 839 24.78 5.7 42.3 63 -0.7 30.8
04:55 1010 29.83 839 24.78 5.8 42.4 63 -0.8 30.6
05:00 1010 29.83 839 24.78 5.9 42.7 62 -0.8 30.5
05:05 1009 29.8 839 24.78 6.1 42.9 61 -0.8 30.6
05:10 1009 29.8 839 24.78 6.1 43.1 61 -0.9 30.4
05:15 1009 29.8 839 24.78 6.3 43.3 60 -0.8 30.5
05:20 1009 29.8 839 24.78 6.4 43.6 60 -0.9 30.5
05:25 1009 29.8 838 24.75 6.4 43.6 60 -0.7 30.7
05:30 1009 29.8 838 24.75 6.4 43.6 60 -0.7 30.8
05:35 1009 29.8 838 24.75 6.4 43.6 59 -0.9 30.3
05:40 1009 29.8 838 24.75 6.6 43.9 58 -1 30.3
05:45 1009 29.8 838 24.75 6.7 44.1 59 -0.7 30.8
05:50 1009 29.8 838 24.75 6.7 44 58 -1 30.3
05:55 1009 29.8 838 24.75 6.8 44.2 59 -0.8 30.6
06:00 1009 29.8 838 24.75 6.7 44.1 59 -0.7 30.8
06:05 1009 29.8 838 24.75 6.7 44 59 -0.7 30.8
06:10 1009 29.8 838 24.75 6.7 44 60 -0.5 31.1
06:15 1009 29.8 838 24.75 6.7 44 62 -0.2 31.7
06:20 1008 29.77 838 24.75 6.7 44 63 0.2 32.4
06:25 1008 29.77 838 24.75 6.7 44.1 65 0.7 33.2
06:30 1008 29.77 837 24.72 6.7 44 64 0.4 32.8
06:35 1008 29.77 837 24.72 6.7 44.1 64 0.4 32.7
06:40 1008 29.77 837 24.72 6.7 44.1 64 0.3 32.5
06:45 1008 29.77 837 24.72 6.8 44.2 63 0.3 32.5
06:50 1008 29.77 837 24.72 6.8 44.2 64 0.5 32.9
06:55 1008 29.77 837 24.72 6.8 44.2 64 0.5 33
07:00 1008 29.77 837 24.72 6.8 44.2 63 0.3 32.5
07:05 1008 29.77 837 24.72 6.9 44.5 63 0.4 32.7
07:10 1008 29.77 837 24.72 7 44.6 63 0.4 32.7
07:15 1008 29.77 837 24.72 7.1 44.7 63 0.4 32.8
07:20 1008 29.77 837 24.72 7 44.6 63 0.6 33
07:25 1008 29.77 837 24.72 7 44.6 63 0.5 32.9
07:30 1008 29.77 837 24.72 7.1 44.7 63 0.4 32.8
07:35 1008 29.77 837 24.72 7.1 44.8 63 0.5 32.9
07:40 1008 29.77 837 24.72 7.2 44.9 63 0.6 33
07:45 1008 29.77 837 24.72 7.2 44.9 63 0.5 32.9
07:50 1008 29.77 837 24.72 7.1 44.8 63 0.7 33.2
07:55 1008 29.77 837 24.72 7.1 44.8 63 0.6 33
08:00 1008 29.77 837 24.72 7.1 44.8 63 0.6 33.1
08:05 1008 29.77 837 24.72 7.1 44.8 63 0.5 33
08:10 1008 29.77 837 24.72 7.1 44.9 63 0.5 32.9
08:15 1008 29.77 837 24.72 7.2 45 63 0.6 33.1
08:20 1008 29.77 837 24.72 7.2 45 63 0.7 33.2
08:25 1008 29.77 837 24.72 7.3 45.2 64 0.9 33.7
08:30 1008 29.77 837 24.72 7.4 45.3 60 0.3 32.5
08:35 1008 29.77 837 24.72 7.8 46 60 0.6 33
08:40 1008 29.77 837 24.72 7.6 45.7 64 1.3 34.3
08:45 1008 29.77 837 24.72 7.4 45.3 64 1.1 33.9
08:50 1008 29.77 837 24.72 7.3 45.2 66 1.4 34.4
08:55 1008 29.77 837 24.72 7.2 44.9 69 1.9 35.5
09:00 1008 29.77 837 24.72 7 44.7 70 1.9 35.4
09:05 1008 29.77 837 24.72 6.8 44.3 73 2.4 36.4
09:10 1008 29.77 837 24.72 6.3 43.4 73 1.9 35.4
09:15 1008 29.77 837 24.72 6.1 42.9 77 2.3 36.2
09:20 1008 29.77 837 24.72 5.9 42.6 76 1.9 35.4
09:25 1008 29.77 837 24.72 5.9 42.6 73 1.5 34.6
09:30 1008 29.77 837 24.72 5.9 42.7 73 1.4 34.5
09:35 1008 29.77 837 24.72 5.8 42.5 76 1.9 35.5
09:40 1008 29.77 838 24.75 5.6 42.1 78 2.1 35.7
09:45 1008 29.77 837 24.72 5.5 41.9 78 2 35.5
09:50 1008 29.77 837 24.72 5.4 41.7 79 2.1 35.7
09:55 1008 29.77 837 24.72 5.3 41.5 80 2.1 35.8
10:00 1008 29.77 837 24.72 5.3 41.5 79 2 35.7
10:05 1007 29.74 837 24.72 5.4 41.8 80 2.2 36
10:10 1007 29.74 837 24.72 5.5 41.9 81 2.5 36.5
10:15 1007 29.74 837 24.72 5.6 42 80 2.4 36.3
10:20 1007 29.74 837 24.72 5.7 42.2 79 2.3 36.1
10:25 1007 29.74 836 24.69 5.7 42.3 79 2.4 36.4
10:30 1007 29.74 836 24.69 5.8 42.4 77 2.1 35.7
10:35 1007 29.74 836 24.69 5.8 42.5 77 2 35.6
10:40 1007 29.74 836 24.69 5.8 42.5 76 1.9 35.5
10:45 1007 29.74 836 24.69 5.8 42.4 76 1.8 35.3
10:50 1007 29.74 836 24.69 5.9 42.6 76 2 35.5
10:55 1007 29.74 836 24.69 5.9 42.6 78 2.3 36.1
11:00 1007 29.74 836 24.69 5.9 42.6 77 2.1 35.8
11:05 1007 29.74 836 24.69 5.8 42.4 77 2.1 35.8
11:10 1007 29.74 836 24.69 5.8 42.5 77 2.1 35.7
11:15 1007 29.74 836 24.69 5.8 42.5 76 1.9 35.5
11:20 1007 29.74 836 24.69 5.9 42.7 75 1.9 35.4
11:25 1007 29.74 836 24.69 6 42.7 76 2.1 35.7
11:30 1007 29.74 836 24.69 6 42.9 75 2 35.6
11:35 1007 29.74 836 24.69 6.1 42.9 73 1.7 35
11:40 1007 29.74 836 24.69 6.1 42.9 74 1.7 35.1
11:45 1007 29.74 836 24.69 6 42.8 73 1.6 34.8
11:50 1007 29.74 836 24.69 5.9 42.7 75 1.8 35.3
11:55 1007 29.74 836 24.69 6.1 42.9 74 1.8 35.2
12:00 1007 29.74 836 24.69 6.1 42.9 74 1.8 35.2
12:05 1007 29.74 836 24.69 6.2 43.2 73 1.8 35.3
12:10 1007 29.74 836 24.69 6.4 43.5 72 1.8 35.2
12:15 1007 29.74 836 24.69 6.4 43.6 73 2 35.5
12:20 1006 29.71 836 24.69 6.6 44 71 1.8 35.2
12:25 1006 29.71 836 24.69 6.7 44.1 71 1.8 35.2
12:30 1006 29.71 836 24.69 6.9 44.4 69 1.7 35
12:35 1006 29.71 836 24.69 7.1 44.8 68 1.7 35
12:40 1006 29.71 836 24.69 7.1 44.8 69 1.8 35.2
12:45 1007 29.74 836 24.69 7.4 45.3 66 1.4 34.5
12:50 1007 29.74 836 24.69 7.6 45.6 66 1.6 35
12:55 1007 29.74 836 24.69 7.7 45.8 65 1.6 34.8
13:00 1007 29.74 836 24.69 7.9 46.3 63 1.4 34.5
13:05 1007 29.74 836 24.69 8.2 46.7 63 1.5 34.7
13:10 1007 29.74 836 24.69 8.1 46.5 62 1.2 34.1
13:15 1007 29.74 837 24.72 8.3 46.9 61 1.1 34.1
13:20 1007 29.74 837 24.72 8.1 46.6 72 3.4 38.1
13:25 1008 29.77 837 24.72 6.8 44.2 77 3.1 37.6
13:30 1008 29.77 837 24.72 5.6 42.1 83 3 37.4
13:35 1008 29.77 837 24.72 4.8 40.7 86 2.7 36.9
13:40 1008 29.77 837 24.72 4.3 39.8 88 2.5 36.4
13:45 1008 29.77 837 24.72 4.2 39.6 88 2.3 36.2
13:50 1008 29.77 837 24.72 4.3 39.7 86 2.2 35.9
13:55 1008 29.77 837 24.72 4.3 39.7 86 2.1 35.8
14:00 1008 29.77 837 24.72 4.3 39.8 87 2.3 36.1
14:05 1008 29.77 837 24.72 4.3 39.7 86 2.1 35.8
14:10 1008 29.77 837 24.72 4.2 39.6 86 2.1 35.7
14:15 1008 29.77 837 24.72 4.2 39.5 85 1.8 35.3
14:20 1008 29.77 837 24.72 4 39.2 87 2 35.6
14:25 1008 29.77 837 24.72 3.9 39 87 2 35.5
14:30 1007 29.74 836 24.69 3.7 38.7 88 2 35.6
14:35 1007 29.74 836 24.69 3.6 38.5 89 1.9 35.5
14:40 1007 29.74 836 24.69 3.7 38.7 89 2.1 35.8
14:45 1007 29.74 837 24.72 4 39.3 87 2.1 35.8
14:50 1008 29.77 837 24.72 4.7 40.4 85 2.4 36.3
14:55 1008 29.77 837 24.72 4.8 40.7 84 2.4 36.2
15:00 1008 29.77 837 24.72 4.8 40.7 82 2.1 35.8
15:05 1008 29.77 837 24.72 4.9 40.8 84 2.4 36.3
15:10 1008 29.77 837 24.72 4.9 40.8 82 2.1 35.7
15:15 1008 29.77 837 24.72 4.9 40.7 84 2.3 36.2
15:20 1008 29.77 837 24.72 4.7 40.5 84 2.3 36.1
15:25 1008 29.77 837 24.72 4.6 40.3 85 2.3 36.2
15:30 1008 29.77 837 24.72 4.6 40.4 83 2 35.7
15:35 1008 29.77 837 24.72 4.4 40 84 2 35.6
15:40 1008 29.77 837 24.72 4.2 39.5 86 2 35.6
15:45 1008 29.77 837 24.72 4.3 39.7 84 1.8 35.2
15:50 1008 29.77 837 24.72 4.3 39.8 84 1.9 35.4
15:55 1007 29.74 837 24.72 4.4 40 85 2.1 35.8
16:00 1008 29.77 837 24.72 4.8 40.7 84 2.3 36.2
16:05 1007 29.74 837 24.72 5.2 41.3 80 2.1 35.7
16:10 1008 29.77 837 24.72 5.6 42 80 2.3 36.2
16:15 1008 29.77 837 24.72 5.6 42 79 2.2 35.9
16:20 1008 29.77 837 24.72 5.5 41.8 79 2 35.7
16:25 1008 29.77 837 24.72 5.4 41.7 79 2.1 35.7
16:30 1008 29.77 837 24.72 5.5 41.8 80 2.4 36.3
16:35 1008 29.77 837 24.72 5.4 41.7 80 2.3 36.1
16:40 1008 29.77 837 24.72 5.2 41.3 82 2.4 36.3
16:45 1008 29.77 837 24.72 5 41.1 84 2.5 36.5
16:50 1008 29.77 837 24.72 4.9 40.8 85 2.5 36.5
16:55 1008 29.77 837 24.72 4.7 40.4 85 2.5 36.4
17:00 1008 29.77 838 24.75 4.5 40.1 85 2.2 35.9
17:05 1009 29.8 838 24.75 4.3 39.8 85 2.1 35.8
17:10 1009 29.8 838 24.75 4.2 39.5 85 1.9 35.5
17:15 1009 29.8 838 24.75 4.1 39.3 87 2.1 35.8
17:20 1009 29.8 838 24.75 4.3 39.7 86 2.1 35.7
17:25 1009 29.8 838 24.75 4 39.2 87 2.1 35.8
17:30 1009 29.8 838 24.75 3.9 39 86 1.7 35
17:35 1009 29.8 838 24.75 3.8 38.9 86 1.8 35.2
17:40 1009 29.8 838 24.75 3.7 38.7 85 1.4 34.5
17:45 1009 29.8 838 24.75 3 37.4 87 1 33.8
17:50 1009 29.8 838 24.75 2.5 36.6 88 0.7 33.2
17:55 1009 29.8 839 24.78 2.4 36.4 88 0.6 33.1
18:00 1009 29.8 839 24.78 2.4 36.3 88 0.7 33.2
18:05 1010 29.83 839 24.78 2.4 36.3 88 0.5 33
18:10 1010 29.83 839 24.78 2.3 36.2 87 0.4 32.7
18:15 1010 29.83 839 24.78 2.2 35.9 88 0.3 32.6
18:20 1010 29.83 839 24.78 2.1 35.8 87 0.3 32.5
18:25 1010 29.83 839 24.78 2 35.7 88 0.3 32.6
18:30 1010 29.83 839 24.78 2.1 35.7 89 0.4 32.8
18:35 1010 29.83 839 24.78 2.1 35.7 88 0.4 32.7
18:40 1010 29.83 839 24.78 2 35.6 89 0.4 32.8
18:45 1010 29.83 839 24.78 2 35.6 89 0.4 32.8
18:50 1010 29.83 839 24.78 2 35.7 90 0.5 32.9
18:55 1010 29.83 839 24.78 2.1 35.7 90 0.5 33
19:00 1010 29.83 839 24.78 2.1 35.8 89 0.5 32.9
19:05 1010 29.83 839 24.78 2 35.7 88 0.3 32.5
19:10 1010 29.83 839 24.78 1.9 35.4 89 0.3 32.5
19:15 1010 29.83 840 24.81 1.8 35.3 89 0.3 32.5
19:20 1010 29.83 840 24.81 1.7 35 90 0.2 32.4
19:25 1011 29.85 840 24.81 1.6 34.9 90 0.2 32.3
19:30 1011 29.85 840 24.81 1.4 34.5 91 0.1 32.2
19:35 1011 29.85 840 24.81 1.1 34.1 91 -0.1 31.8
19:40 1011 29.85 840 24.81 1 33.8 92 -0.2 31.7
19:45 1011 29.85 840 24.81 0.8 33.5 92 -0.3 31.5
19:50 1011 29.85 840 24.81 0.8 33.4 92 -0.3 31.4
19:55 1011 29.85 840 24.81 0.7 33.2 93 -0.4 31.4
20:00 1011 29.85 840 24.81 0.6 33 93 -0.5 31.2
20:05 1011 29.85 840 24.81 0.4 32.8 93 -0.6 31
20:10 1011 29.85 840 24.81 0.4 32.7 93 -0.6 30.9
20:15 1011 29.85 840 24.81 0.3 32.6 93 -0.6 30.9
20:20 1011 29.85 840 24.81 0.4 32.6 94 -0.6 31
20:25 1011 29.85 841 24.83 0.4 32.7 94 -0.5 31.1
20:30 1011 29.85 841 24.83 0.4 32.8 94 -0.5 31.1
20:35 1012 29.88 841 24.83 0.5 32.8 94 -0.5 31.2
20:40 1011 29.85 841 24.83 0.4 32.7 94 -0.5 31.1
20:45 1011 29.85 841 24.83 0.3 32.6 94 -0.6 31
20:50 1011 29.85 841 24.83 0.5 32.8 94 -0.4 31.2
20:55 1011 29.85 841 24.83 0.5 32.9 94 -0.4 31.3
21:00 1012 29.88 841 24.83 0.5 32.9 94 -0.4 31.2
21:05 1012 29.88 841 24.83 0.5 32.8 94 -0.5 31.2
21:10 1012 29.88 841 24.83 0.5 32.9 94 -0.4 31.2
21:15 1011 29.85 841 24.83 0.4 32.7 94 -0.5 31.1
21:20 1011 29.85 841 24.83 0.3 32.6 94 -0.6 31
21:25 1011 29.85 841 24.83 0.3 32.5 93 -0.6 30.9
21:30 1011 29.85 841 24.83 0.4 32.8 93 -0.6 31
21:35 1011 29.85 841 24.83 0.5 32.9 92 -0.7 30.7
21:40 1011 29.85 841 24.83 0.4 32.8 91 -0.8 30.5
21:45 1011 29.85 841 24.83 0.5 32.9 91 -0.8 30.5
21:50 1011 29.85 841 24.83 0.6 33.1 90 -0.9 30.4
21:55 1011 29.85 841 24.83 0.6 33.1 89 -0.9 30.3
22:00 1011 29.85 841 24.83 0.6 33.1 89 -1 30.2
22:05 1011 29.85 841 24.83 0.7 33.2 89 -1 30.3
22:10 1011 29.85 841 24.83 0.8 33.5 87 -1 30.1
22:15 1011 29.85 840 24.81 0.9 33.6 87 -1 30.2
22:20 1011 29.85 840 24.81 0.9 33.6 86 -1.2 29.8
22:25 1011 29.85 840 24.81 0.9 33.7 86 -1.2 29.9
22:30 1011 29.85 840 24.81 1 33.7 85 -1.2 29.8
22:35 1011 29.85 840 24.81 0.9 33.6 84 -1.5 29.3
22:40 1011 29.85 840 24.81 0.9 33.6 84 -1.6 29.1
22:45 1011 29.85 840 24.81 0.8 33.4 84 -1.6 29.2
22:50 1011 29.85 840 24.81 0.8 33.4 83 -1.7 28.9
22:55 1011 29.85 840 24.81 0.8 33.4 83 -1.7 28.9
23:00 1011 29.85 840 24.81 0.8 33.4 83 -1.8 28.7
23:05 1011 29.85 840 24.81 0.8 33.5 82 -1.9 28.6
23:10 1011 29.85 840 24.81 0.8 33.5 84 -1.5 29.3
23:15 1011 29.85 840 24.81 0.7 33.2 87 -1.3 29.7
23:20 1011 29.85 840 24.81 0.4 32.7 89 -1.2 29.9
23:25 1011 29.85 840 24.81 0.4 32.7 91 -0.9 30.4
23:30 1011 29.85 840 24.81 0.4 32.7 90 -1.1 30
23:35 1011 29.85 840 24.81 0.4 32.7 87 -1.5 29.4
23:40 1011 29.85 840 24.81 0.4 32.7 86 -1.7 28.9
23:45 1011 29.85 840 24.81 0.4 32.8 88 -1.4 29.5
23:50 1011 29.85 841 24.83 0.4 32.8 88 -1.4 29.5
23:55 1011 29.85 841 24.83 0.5 32.8 89 -1.2 29.9
24:00 1011 29.85 841 24.83 0.4 32.8 89 -1.2 29.9